Time;durP1;ratioP1;P1;durP2;ratioP2;P2;SDS_P1;SDS_P2;PMS_P1;PMS_P2;Temp;Humidity;BMP_temperature;BMP_pressure;BME280_temperature;BME280_humidity;BME280_pressure;Samples;Min_cycle;Max_cycle;Signal;HPM_P1;HPM_P2
2021/03/11 00:01:13;;;;;;;1.60;0.97;;;;;;;1.54;41.76;100373.72;4414574;32;34892;-73
2021/03/11 00:03:40;;;;;;;2.55;2.37;;;;;;;1.45;41.92;100386.41;4414852;32;34175;-72
2021/03/11 00:06:07;;;;;;;3.55;2.65;;;;;;;1.79;41.16;100387.31;4400673;32;34193;-73
2021/03/11 00:08:34;;;;;;;1.37;0.82;;;;;;;1.90;40.69;100387.62;4414833;32;33901;-72
2021/03/11 00:11:03;;;;;;;5.53;2.85;;;;;;;1.99;40.78;100391.59;4413300;32;34790;-73
2021/03/11 00:13:30;;;;;;;1.85;0.77;;;;;;;2.11;40.49;100390.97;4414856;32;34155;-73
2021/03/11 00:15:57;;;;;;;1.40;1.30;;;;;;;2.15;40.80;100392.53;4400719;32;34137;-72
2021/03/11 00:18:24;;;;;;;2.62;2.42;;;;;;;2.41;39.72;100382.38;4413192;32;34194;-74
2021/03/11 00:20:51;;;;;;;2.72;2.03;;;;;;;2.23;39.84;100377.22;4410656;32;36136;-73
2021/03/11 00:23:33;;;;;;;3.17;2.87;;;;;;;1.98;41.07;100376.78;4413180;32;34283;-73
2021/03/11 00:26:00;;;;;;;1.98;1.42;;;;;;;2.00;40.53;100380.16;4413197;32;33202;-75
2021/03/11 00:28:27;;;;;;;2.83;2.70;;;;;;;1.98;41.51;100377.59;4412660;32;32983;-72
2021/03/11 00:30:55;;;;;;;1.15;0.68;;;;;;;2.22;40.24;100378.12;4414190;32;35667;-72
2021/03/11 00:33:22;;;;;;;4.68;2.10;;;;;;;2.16;40.38;100370.59;4412866;32;34095;-73
2021/03/11 00:35:49;;;;;;;2.67;2.45;;;;;;;2.27;40.19;100370.91;4413303;32;33721;-73
2021/03/11 00:38:17;;;;;;;4.50;1.12;;;;;;;2.27;40.14;100373.53;4414380;32;33769;-73
2021/03/11 00:40:44;;;;;;;2.97;2.05;;;;;;;2.25;40.20;100373.59;4400057;32;34460;-73
2021/03/11 00:43:14;;;;;;;3.23;1.70;;;;;;;2.19;39.96;100366.03;4413319;32;34201;-73
2021/03/11 00:45:42;;;;;;;22.35;4.70;;;;;;;2.19;40.15;100373.94;4412671;32;33914;-73
2021/03/11 00:48:09;;;;;;;3.03;2.83;;;;;;;2.15;40.17;100366.28;4414032;32;33135;-72
2021/03/11 00:50:36;;;;;;;2.90;2.72;;;;;;;2.06;40.30;100372.81;4414303;32;35067;-73
2021/03/11 00:53:05;;;;;;;3.72;3.35;;;;;;;2.32;39.86;100371.50;4416772;32;33732;-72
2021/03/11 00:55:33;;;;;;;1.45;1.37;;;;;;;2.14;39.98;100357.53;4412551;32;32915;-73
2021/03/11 00:58:01;;;;;;;1.33;1.23;;;;;;;1.55;41.67;100364.06;4415155;32;34511;-73
2021/03/11 01:00:29;;;;;;;9.52;4.07;;;;;;;1.82;40.82;100362.72;4416127;32;34166;-73
2021/03/11 01:02:57;;;;;;;3.20;1.95;;;;;;;1.65;41.26;100366.19;4415372;32;34128;-74
2021/03/11 01:05:30;;;;;;;1.65;1.55;;;;;;;1.71;40.95;100363.25;4414726;32;32862;-73
2021/03/11 01:07:58;;;;;;;3.17;3.00;;;;;;;1.89;40.65;100349.22;4415296;32;33571;-73
2021/03/11 01:10:26;;;;;;;2.03;1.58;;;;;;;1.59;40.86;100342.03;4414748;32;36978;-72
2021/03/11 01:12:53;;;;;;;3.22;2.95;;;;;;;1.45;41.21;100347.94;4415749;32;34925;-73
2021/03/11 01:15:21;;;;;;;2.28;0.70;;;;;;;1.35;41.75;100351.94;4416751;32;33311;-73
2021/03/11 01:17:48;;;;;;;2.50;2.33;;;;;;;1.26;41.73;100357.62;4416533;32;33028;-73
2021/03/11 01:20:18;;;;;;;1.00;0.98;;;;;;;1.43;41.47;100359.44;4412107;32;34443;-73
2021/03/11 01:22:45;;;;;;;2.60;2.20;;;;;;;1.49;41.40;100361.75;4416191;32;33759;-72
2021/03/11 01:25:13;;;;;;;2.25;2.05;;;;;;;1.43;41.80;100355.00;4415252;32;33391;-72
2021/03/11 01:27:40;;;;;;;1.75;1.65;;;;;;;2.02;40.15;100345.06;4401928;32;34264;-72
2021/03/11 01:30:09;;;;;;;1.95;1.85;;;;;;;1.64;40.72;100345.25;4414454;32;34914;-73
2021/03/11 01:32:36;;;;;;;0.90;0.90;;;;;;;1.36;41.34;100342.28;4416067;32;34270;-72
2021/03/11 01:35:04;;;;;;;2.12;2.00;;;;;;;1.16;42.47;100340.66;4399792;32;35257;-72
2021/03/11 01:37:32;;;;;;;1.00;0.95;;;;;;;1.15;42.18;100351.19;4414882;32;34990;-73
2021/03/11 01:39:59;;;;;;;3.53;3.30;;;;;;;1.15;42.07;100351.19;4418327;32;34905;-72
2021/03/11 01:42:28;;;;;;;3.28;1.85;;;;;;;1.27;42.05;100343.59;4416369;32;33693;-72
2021/03/11 01:44:56;;;;;;;2.65;2.45;;;;;;;1.42;41.37;100332.34;4415751;32;33742;-73
2021/03/11 01:47:23;;;;;;;0.50;0.50;;;;;;;1.19;41.86;100335.25;4415387;32;33756;-72
2021/03/11 01:49:50;;;;;;;0.95;0.95;;;;;;;0.86;43.10;100335.97;4411738;32;34868;-72
2021/03/11 01:52:19;;;;;;;1.48;1.45;;;;;;;0.94;42.73;100342.56;4414848;32;34060;-74
2021/03/11 01:54:47;;;;;;;0.68;0.68;;;;;;;0.99;42.67;100348.44;4416073;32;33254;-73
2021/03/11 01:57:14;;;;;;;1.33;1.33;;;;;;;1.09;42.54;100340.97;4401759;32;33212;-73
2021/03/11 01:59:41;;;;;;;2.05;1.95;;;;;;;1.39;41.74;100335.13;4414752;32;34794;-74
2021/03/11 02:02:08;;;;;;;1.30;1.15;;;;;;;1.19;41.96;100342.25;4413937;32;33564;-74
2021/03/11 02:04:36;;;;;;;0.55;0.55;;;;;;;1.14;42.45;100346.88;4414456;32;33170;-73
2021/03/11 02:07:03;;;;;;;1.80;1.77;;;;;;;1.16;42.16;100343.25;4414309;32;33702;-73
2021/03/11 02:09:30;;;;;;;1.03;1.03;;;;;;;1.03;42.64;100343.91;4413845;32;35618;-73
2021/03/11 02:12:06;;;;;;;2.53;2.33;;;;;;;1.37;41.68;100342.22;4401498;32;34657;-73
2021/03/11 02:14:42;;;;;;;1.20;1.17;;;;;;;1.51;41.44;100328.44;4416217;32;34335;-73
2021/03/11 02:17:09;;;;;;;1.25;1.25;;;;;;;1.30;41.76;100327.72;4415339;32;35601;-73
2021/03/11 02:19:52;;;;;;;1.87;0.70;;;;;;;0.92;43.52;100331.31;4414532;32;34756;-73
2021/03/11 02:22:57;;;;;;;1.58;1.37;;;;;;;1.05;42.91;100326.34;4415882;32;35314;-73
2021/03/11 02:25:53;;;;;;;0.75;0.75;;;;;;;1.12;42.29;100330.38;4415082;32;32723;-73
2021/03/11 02:28:36;;;;;;;1.77;1.67;;;;;;;1.11;42.34;100328.66;4401555;32;33312;-73
2021/03/11 02:31:04;;;;;;;1.77;1.67;;;;;;;1.02;43.01;100329.94;4414393;32;37425;-73
2021/03/11 02:33:34;;;;;;;2.20;2.10;;;;;;;1.06;43.02;100321.00;4413732;32;36035;-73
2021/03/11 02:36:02;;;;;;;3.70;3.40;;;;;;;1.21;42.55;100332.53;4413466;32;33254;-73
2021/03/11 02:38:29;;;;;;;3.12;2.92;;;;;;;1.20;42.62;100333.47;4414026;32;33305;-75
2021/03/11 02:40:58;;;;;;;5.70;3.65;;;;;;;1.13;42.80;100321.59;4411550;32;34950;-73
2021/03/11 02:43:26;;;;;;;1.17;1.00;;;;;;;0.97;43.02;100312.75;4400287;32;34257;-73
2021/03/11 02:45:53;;;;;;;1.25;1.25;;;;;;;0.78;43.67;100317.16;4414242;32;33306;-73
2021/03/11 02:48:22;;;;;;;1.27;1.17;;;;;;;0.86;43.61;100315.03;4401646;32;35381;-72
2021/03/11 02:50:49;;;;;;;0.70;0.70;;;;;;;0.91;43.91;100305.16;4401535;32;34806;-74
2021/03/11 02:53:17;;;;;;;1.00;0.93;;;;;;;0.90;43.76;100308.72;4414339;32;34269;-73
2021/03/11 02:55:45;;;;;;;6.43;1.40;;;;;;;0.92;43.76;100307.72;4414165;32;33212;-72
2021/03/11 02:58:12;;;;;;;9.20;1.55;;;;;;;0.60;44.72;100315.37;4401412;32;33160;-72
2021/03/11 03:00:41;;;;;;;2.75;2.60;;;;;;;0.92;43.70;100314.72;4414045;32;35665;-72
2021/03/11 03:03:09;;;;;;;5.25;3.70;;;;;;;1.00;43.34;100312.59;4413875;32;35100;-73
2021/03/11 03:05:37;;;;;;;0.93;0.93;;;;;;;0.98;43.35;100309.22;4415725;32;33497;-74
2021/03/11 03:08:06;;;;;;;9.02;2.20;;;;;;;0.81;43.95;100309.16;4388978;32;33931;-73
2021/03/11 03:10:35;;;;;;;1.17;1.12;;;;;;;0.88;43.51;100303.56;4397694;32;34927;-72
2021/03/11 03:13:08;;;;;;;1.37;1.37;;;;;;;0.87;43.34;100307.09;4413310;32;33820;-74
2021/03/11 03:15:35;;;;;;;1.40;1.30;;;;;;;0.27;45.57;100302.03;4414034;32;33151;-72
2021/03/11 03:18:04;;;;;;;3.20;2.90;;;;;;;0.57;44.62;100307.69;4414268;32;33489;-73
2021/03/11 03:20:32;;;;;;;2.75;2.08;;;;;;;0.75;43.87;100312.91;4401312;32;37192;-74
2021/03/11 03:23:04;;;;;;;2.92;2.62;;;;;;;0.66;43.88;100312.50;4414816;32;34862;-74
2021/03/11 03:25:47;;;;;;;4.77;1.63;;;;;;;0.73;43.76;100317.38;4410098;32;98413;-75
2021/03/11 03:28:15;;;;;;;2.17;2.08;;;;;;;0.62;43.86;100318.75;4413089;32;34531;-74
2021/03/11 03:30:43;;;;;;;2.10;1.67;;;;;;;0.68;43.86;100321.94;4414952;32;35235;-74
2021/03/11 03:33:12;;;;;;;3.10;1.75;;;;;;;0.66;43.81;100312.50;4401252;32;34222;-74
2021/03/11 03:35:41;;;;;;;3.85;3.55;;;;;;;0.53;44.09;100309.56;4414208;32;33335;-74
2021/03/11 03:38:08;;;;;;;1.80;1.70;;;;;;;0.33;44.91;100304.41;4413612;32;33717;-74
2021/03/11 03:40:36;;;;;;;1.92;1.85;;;;;;;0.42;44.84;100301.37;4414011;32;34665;-73
2021/03/11 03:43:34;;;;;;;2.35;2.20;;;;;;;0.28;45.12;100301.13;4410701;32;34240;-73
2021/03/11 03:46:12;;;;;;;2.45;1.73;;;;;;;0.27;45.36;100299.44;4401190;32;32524;-74
2021/03/11 03:48:40;;;;;;;12.43;1.55;;;;;;;0.43;44.73;100310.06;4413751;32;34565;-74
2021/03/11 03:51:08;;;;;;;2.00;1.90;;;;;;;0.53;44.19;100313.94;4415045;32;34397;-73
2021/03/11 03:53:39;;;;;;;2.42;2.30;;;;;;;0.39;44.58;100313.75;4400797;32;33645;-76
2021/03/11 03:56:11;;;;;;;2.17;1.62;;;;;;;0.38;44.74;100307.63;4422762;32;32688;-74
2021/03/11 03:58:39;;;;;;;0.45;0.45;;;;;;;0.37;44.48;100315.53;4413530;32;33549;-74
2021/03/11 04:01:07;;;;;;;1.02;1.02;;;;;;;0.38;44.23;100310.25;4411537;32;34113;-76
2021/03/11 04:03:35;;;;;;;2.22;2.15;;;;;;;0.17;45.08;100311.22;4400916;32;34264;-74
2021/03/11 04:06:02;;;;;;;6.60;4.70;;;;;;;0.03;45.89;100313.56;4413307;32;33989;-74
2021/03/11 04:08:29;;;;;;;4.95;4.45;;;;;;;0.10;45.33;100314.19;4411100;32;33096;-75
2021/03/11 04:10:57;;;;;;;3.22;2.97;;;;;;;0.11;45.00;100318.50;4400746;32;34784;-74
2021/03/11 04:13:25;;;;;;;3.05;2.70;;;;;;;0.03;44.95;100317.97;4413526;32;34225;-76
2021/03/11 04:15:52;;;;;;;1.73;1.62;;;;;;;-0.06;44.91;100318.37;4413105;32;33136;-74
2021/03/11 04:18:20;;;;;;;1.50;0.60;;;;;;;-0.06;45.71;100319.19;4413287;32;33239;-77
2021/03/11 04:20:47;;;;;;;0.30;0.30;;;;;;;-0.05;45.17;100333.13;4413623;32;34807;-74
2021/03/11 04:23:15;;;;;;;5.57;3.53;;;;;;;-0.16;45.16;100334.50;4414576;32;34244;-74
2021/03/11 04:25:43;;;;;;;1.33;1.20;;;;;;;-0.20;44.93;100331.16;4415349;32;33901;-75
2021/03/11 04:28:11;;;;;;;2.15;1.62;;;;;;;-0.32;45.11;100329.06;4403348;32;34333;-75
2021/03/11 04:30:39;;;;;;;0.90;0.90;;;;;;;-0.46;45.71;100326.19;4403155;32;34784;-75
2021/03/11 04:33:06;;;;;;;0.32;0.32;;;;;;;-0.43;46.10;100331.28;4402835;32;34499;-74
2021/03/11 04:35:34;;;;;;;3.72;3.25;;;;;;;-0.20;45.26;100322.47;4402565;32;33039;-75
2021/03/11 04:38:03;;;;;;;2.25;2.08;;;;;;;-0.45;46.13;100324.41;4415110;32;34189;-75
2021/03/11 04:40:31;;;;;;;2.05;1.95;;;;;;;-0.26;45.26;100322.72;4414817;32;34791;-74
2021/03/11 04:42:59;;;;;;;3.20;2.92;;;;;;;-0.31;45.63;100327.31;4414482;32;33926;-75
2021/03/11 04:45:26;;;;;;;2.53;1.92;;;;;;;-0.27;45.45;100321.91;4414908;32;34083;-74
2021/03/11 04:47:54;;;;;;;1.33;1.27;;;;;;;-0.32;45.76;100316.00;4414408;32;35545;-76
2021/03/11 04:50:21;;;;;;;0.88;0.82;;;;;;;-0.33;45.56;100309.06;4414237;32;35511;-76
2021/03/11 04:52:50;;;;;;;1.42;1.33;;;;;;;-0.35;45.26;100310.91;4410958;32;34234;-75
2021/03/11 04:55:17;;;;;;;0.93;0.93;;;;;;;-0.27;45.23;100316.66;4402431;32;33119;-78
2021/03/11 04:57:44;;;;;;;2.87;2.70;;;;;;;-0.57;45.95;100327.53;4414690;32;34695;-75
2021/03/11 05:00:14;;;;;;;1.85;1.15;;;;;;;-0.76;46.82;100326.59;4415308;32;34862;-75
2021/03/11 05:02:44;;;;;;;2.55;2.45;;;;;;;-0.54;46.65;100328.28;4402438;32;34287;-74
2021/03/11 05:05:11;;;;;;;11.02;3.28;;;;;;;-0.50;46.12;100322.00;4402377;32;33785;-75
2021/03/11 05:07:39;;;;;;;12.70;8.15;;;;;;;-0.71;47.61;100322.00;4401774;32;32346;-74
2021/03/11 05:10:06;;;;;;;7.03;5.00;;;;;;;-0.57;46.83;100317.91;4416138;32;35664;-74
2021/03/11 05:12:33;;;;;;;8.90;3.00;;;;;;;-0.48;46.20;100320.16;4414688;32;34649;-75
2021/03/11 05:15:00;;;;;;;3.60;3.40;;;;;;;-0.53;46.53;100324.75;4414584;32;33254;-75
2021/03/11 05:17:28;;;;;;;4.85;3.92;;;;;;;-0.58;46.74;100316.22;4416539;32;34054;-75
2021/03/11 05:20:03;;;;;;;3.40;3.28;;;;;;;-0.55;46.51;100310.03;4402887;32;35233;-75
2021/03/11 05:22:30;;;;;;;;;;;;;;;-0.54;46.52;100315.19;4412896;32;36130;-75
2021/03/11 05:24:57;;;;;;;2.03;1.90;;;;;;;-0.64;46.46;100323.47;4414265;32;31206;-75
2021/03/11 05:27:27;;;;;;;4.20;2.97;;;;;;;-0.47;45.91;100321.84;4416500;32;33088;-76
2021/03/11 05:29:54;;;;;;;0.98;0.93;;;;;;;-0.44;46.07;100318.28;4414887;32;36518;-74
2021/03/11 05:32:21;;;;;;;2.70;2.50;;;;;;;-0.52;46.04;100317.72;4414692;32;33981;-74
2021/03/11 05:34:48;;;;;;;2.07;1.90;;;;;;;-0.40;45.80;100312.03;4415931;32;33374;-73
2021/03/11 05:37:16;;;;;;;;;;;;;;;-0.40;46.14;100319.88;4401759;32;33720;-74
2021/03/11 05:39:54;;;;;;;0.30;0.30;;;;;;;-0.33;46.05;100326.50;4415170;32;34873;-73
2021/03/11 05:42:21;;;;;;;2.08;1.98;;;;;;;-0.36;46.26;100337.97;4414435;32;34188;-74
2021/03/11 05:44:49;;;;;;;3.70;2.25;;;;;;;-0.44;46.30;100341.78;4411872;32;33238;-73
2021/03/11 05:47:18;;;;;;;1.35;1.25;;;;;;;-0.53;46.95;100336.94;4402055;32;33680;-73
2021/03/11 05:49:45;;;;;;;3.40;3.10;;;;;;;-0.71;49.01;100337.69;4416028;32;34734;-73
2021/03/11 05:52:13;;;;;;;2.75;2.33;;;;;;;-0.68;49.43;100337.56;4415918;32;33773;-74
2021/03/11 05:54:41;;;;;;;2.22;2.05;;;;;;;-0.62;48.81;100335.56;4401208;32;33279;-74
2021/03/11 05:57:08;;;;;;;0.98;0.82;;;;;;;-0.31;48.12;100322.09;4401685;32;34251;-73
2021/03/11 05:59:35;;;;;;;2.72;2.53;;;;;;;-0.17;47.66;100327.56;4414428;32;34857;-74
2021/03/11 06:02:07;;;;;;;2.08;1.98;;;;;;;-0.07;47.24;100332.34;4415814;32;34291;-75
2021/03/11 06:04:39;;;;;;;2.53;2.05;;;;;;;0.02;47.01;100329.34;4415886;32;33145;-76
2021/03/11 06:07:06;;;;;;;0.98;0.98;;;;;;;0.04;47.29;100332.75;4401426;32;35151;-75
2021/03/11 06:09:33;;;;;;;2.80;1.80;;;;;;;0.07;47.95;100332.59;4415774;32;34902;-75
2021/03/11 06:12:01;;;;;;;3.22;2.70;;;;;;;0.15;47.72;100326.13;4398417;32;32480;-75
2021/03/11 06:14:35;;;;;;;2.47;2.37;;;;;;;0.16;48.13;100330.44;4401735;32;33196;-74
2021/03/11 06:17:06;;;;;;;3.50;3.20;;;;;;;0.35;47.59;100325.25;4417654;32;33939;-74
2021/03/11 06:19:34;;;;;;;3.85;2.42;;;;;;;0.43;47.58;100331.84;4414380;32;33872;-74
2021/03/11 06:22:02;;;;;;;1.77;1.62;;;;;;;0.65;47.23;100331.72;4411290;32;34201;-75
2021/03/11 06:24:44;;;;;;;8.52;3.00;;;;;;;0.77;46.69;100323.31;4415817;32;34082;-74
2021/03/11 06:27:21;;;;;;;2.53;2.33;;;;;;;0.96;46.32;100338.09;4402842;32;34311;-73
2021/03/11 06:29:48;;;;;;;3.30;2.87;;;;;;;0.82;47.18;100337.88;4415294;32;34955;-73
2021/03/11 06:32:15;;;;;;;2.37;2.28;;;;;;;1.02;47.52;100334.31;4414571;32;34463;-74
2021/03/11 06:34:43;;;;;;;3.80;3.50;;;;;;;1.17;47.30;100336.22;4412019;32;34020;-74
2021/03/11 06:37:12;;;;;;;4.00;2.78;;;;;;;1.24;46.79;100329.78;4414378;32;34380;-75
2021/03/11 06:39:43;;;;;;;1.98;1.87;;;;;;;1.45;46.07;100333.97;4415505;32;36170;-74
2021/03/11 06:42:10;;;;;;;7.72;3.45;;;;;;;1.48;46.36;100341.69;4412647;32;34244;-75
2021/03/11 06:44:42;;;;;;;8.20;2.13;;;;;;;1.52;46.80;100349.31;4413673;32;33216;-73
2021/03/11 06:47:12;;;;;;;2.90;2.78;;;;;;;1.44;46.98;100350.62;4425903;32;33329;-74
2021/03/11 06:49:59;;;;;;;3.80;3.50;;;;;;;1.77;46.23;100341.97;4413773;32;34584;-74
2021/03/11 06:52:29;;;;;;;6.37;4.65;;;;;;;1.58;46.78;100345.56;4415282;32;34712;-74
2021/03/11 06:55:03;;;;;;;2.87;2.45;;;;;;;1.89;46.45;100351.00;4413534;32;31479;-75
2021/03/11 06:57:35;;;;;;;4.37;3.97;;;;;;;2.15;45.91;100345.28;4411782;32;33856;-74
2021/03/11 07:00:22;;;;;;;6.12;2.95;;;;;;;2.19;45.67;100350.31;4413534;32;34609;-76
2021/03/11 07:02:50;;;;;;;4.07;3.70;;;;;;;2.24;45.47;100343.03;4413199;32;35151;-75
2021/03/11 07:05:20;;;;;;;2.60;2.40;;;;;;;2.68;44.43;100345.00;4414161;32;34226;-76
2021/03/11 07:08:16;;;;;;;2.47;1.23;;;;;;;2.60;43.99;100342.84;4412934;32;33765;-76
2021/03/11 07:10:45;;;;;;;4.87;2.85;;;;;;;2.65;44.71;100341.72;4410788;32;35343;-73
2021/03/11 07:13:13;;;;;;;2.80;2.10;;;;;;;2.63;44.37;100355.84;4411703;32;33825;-75
2021/03/11 07:15:41;;;;;;;4.30;3.45;;;;;;;2.66;41.90;100355.69;4416245;32;32894;-74
2021/03/11 07:18:20;;;;;;;5.82;2.42;;;;;;;2.16;42.77;100358.31;4412295;32;33667;-74
2021/03/11 07:20:47;;;;;;;3.35;1.77;;;;;;;2.61;41.43;100362.97;4424349;32;34957;-73
2021/03/11 07:23:15;;;;;;;2.37;2.17;;;;;;;2.96;41.18;100360.13;4413917;32;34002;-75
2021/03/11 07:25:46;;;;;;;5.33;1.13;;;;;;;2.69;41.62;100361.63;4400556;32;33647;-74
2021/03/11 07:28:25;;;;;;;2.40;2.30;;;;;;;2.59;42.17;100363.03;4399574;32;34179;-73
2021/03/11 07:30:57;;;;;;;1.33;1.23;;;;;;;2.75;41.45;100362.13;4413063;32;35393;-74
2021/03/11 07:33:29;;;;;;;2.62;2.42;;;;;;;2.84;41.49;100353.75;4400193;32;34200;-74
2021/03/11 07:36:02;;;;;;;6.18;2.22;;;;;;;3.48;39.78;100351.91;4412883;32;34476;-74
2021/03/11 07:38:47;;;;;;;3.08;2.83;;;;;;;3.43;40.63;100347.84;4402321;32;33468;-73
2021/03/11 07:41:14;;;;;;;3.80;3.12;;;;;;;3.47;40.85;100351.97;4399860;32;34800;-73
2021/03/11 07:43:42;;;;;;;2.60;2.20;;;;;;;3.27;41.15;100349.63;4409949;32;34318;-74
2021/03/11 07:46:09;;;;;;;2.25;1.70;;;;;;;3.71;40.59;100348.78;4399981;32;32395;-73
2021/03/11 07:48:37;;;;;;;2.83;2.62;;;;;;;3.83;39.35;100349.88;4397998;32;34280;-73
2021/03/11 07:51:06;;;;;;;2.58;2.37;;;;;;;4.04;38.97;100336.31;4393184;32;34947;-73
2021/03/11 07:53:37;;;;;;;5.12;1.62;;;;;;;4.02;38.74;100340.84;4410817;32;34838;-73
2021/03/11 07:56:07;;;;;;;2.15;1.95;;;;;;;3.78;39.83;100349.31;4398363;32;32622;-74
2021/03/11 07:58:42;;;;;;;5.05;2.67;;;;;;;3.58;40.43;100342.56;4412842;32;33417;-73
2021/03/11 08:01:10;;;;;;;4.82;3.50;;;;;;;3.75;40.65;100347.69;4414283;32;34651;-74
2021/03/11 08:03:44;;;;;;;3.28;2.58;;;;;;;4.57;38.42;100338.34;4413771;32;33760;-74
2021/03/11 08:06:29;;;;;;;3.40;2.78;;;;;;;3.96;39.56;100343.81;4413517;32;35776;-73
2021/03/11 08:08:57;;;;;;;1.40;1.37;;;;;;;3.86;39.93;100334.75;4414136;32;33595;-73
2021/03/11 08:11:36;;;;;;;4.95;4.45;;;;;;;3.64;40.28;100336.09;4412916;32;34641;-74
2021/03/11 08:14:24;;;;;;;2.65;2.55;;;;;;;3.41;41.62;100344.47;4413122;32;34988;-73
2021/03/11 08:16:53;;;;;;;4.43;3.17;;;;;;;3.60;40.65;100330.16;4412011;32;34050;-74
2021/03/11 08:19:34;;;;;;;3.67;3.10;;;;;;;3.65;40.92;100320.22;4413766;32;35485;-73
2021/03/11 08:22:03;;;;;;;2.25;1.85;;;;;;;3.82;40.53;100320.09;4414202;32;34670;-73
2021/03/11 08:24:39;;;;;;;7.28;2.83;;;;;;;3.60;40.83;100326.69;4414817;32;34356;-74
2021/03/11 08:27:32;;;;;;;6.40;2.00;;;;;;;3.67;40.85;100328.87;4415280;32;33304;-73
2021/03/11 08:30:06;;;;;;;1.67;1.58;;;;;;;3.61;41.30;100325.75;4414366;32;34769;-73
2021/03/11 08:32:48;;;;;;;1.27;1.25;;;;;;;3.70;41.40;100327.84;4415323;32;34574;-74
2021/03/11 08:35:33;;;;;;;2.45;2.22;;;;;;;3.77;41.34;100324.78;4395510;32;34393;-73
2021/03/11 08:38:21;;;;;;;5.35;4.05;;;;;;;3.88;41.68;100325.00;4400515;32;33180;-73
2021/03/11 08:40:55;;;;;;;1.90;1.80;;;;;;;3.81;42.02;100321.03;4414530;32;35408;-73
2021/03/11 08:43:35;;;;;;;4.18;3.80;;;;;;;4.50;40.41;100314.19;4415722;32;34279;-74
2021/03/11 08:46:05;;;;;;;6.70;4.65;;;;;;;4.55;40.48;100312.09;4401017;32;33543;-74
2021/03/11 08:48:58;;;;;;;3.75;3.50;;;;;;;4.83;40.03;100298.91;4414965;32;33716;-73
2021/03/11 08:51:26;;;;;;;9.77;3.25;;;;;;;4.61;39.74;100306.47;4401774;32;31970;-74
2021/03/11 08:54:04;;;;;;;2.90;2.65;;;;;;;4.87;40.13;100303.06;4401318;32;36649;-73
2021/03/11 08:56:40;;;;;;;4.53;4.18;;;;;;;4.53;39.79;100300.81;4414007;32;32247;-74
2021/03/11 08:59:11;;;;;;;9.43;1.65;;;;;;;5.23;38.50;100294.59;4406335;32;33234;-74
2021/03/11 09:01:44;;;;;;;2.35;2.25;;;;;;;5.39;38.34;100290.88;4414392;32;33818;-74
2021/03/11 09:04:17;;;;;;;3.12;2.67;;;;;;;4.99;38.53;100288.25;4414584;32;36065;-74
2021/03/11 09:07:05;;;;;;;2.42;1.75;;;;;;;4.77;39.29;100290.53;4412226;32;34197;-74
2021/03/11 09:09:37;;;;;;;2.30;2.12;;;;;;;4.74;39.45;100278.41;4414818;32;33440;-73
2021/03/11 09:12:07;;;;;;;6.35;2.47;;;;;;;4.86;39.10;100274.16;4400445;32;33425;-73
2021/03/11 09:14:36;;;;;;;3.22;2.87;;;;;;;4.69;39.56;100279.62;4413121;32;35560;-73
2021/03/11 09:17:11;;;;;;;5.18;3.80;;;;;;;5.09;37.97;100274.37;4409507;32;32475;-73
2021/03/11 09:19:40;;;;;;;4.15;2.80;;;;;;;5.15;38.21;100258.16;4412196;32;32626;-73
2021/03/11 09:22:29;;;;;;;16.02;2.87;;;;;;;5.19;37.67;100261.44;4412477;32;33492;-74
2021/03/11 09:24:57;;;;;;;2.17;2.03;;;;;;;5.72;37.52;100247.25;4410834;32;35404;-74
2021/03/11 09:27:28;;;;;;;2.97;2.75;;;;;;;5.62;38.06;100251.47;4414284;32;34095;-73
2021/03/11 09:30:07;;;;;;;3.78;1.48;;;;;;;6.09;36.82;100248.28;4413116;32;33162;-73
2021/03/11 09:32:37;;;;;;;3.47;3.20;;;;;;;6.26;36.01;100240.03;4387562;32;33822;-74
2021/03/11 09:35:10;;;;;;;5.22;2.72;;;;;;;6.52;35.20;100250.47;4401036;32;34519;-73
2021/03/11 09:37:45;;;;;;;5.40;4.57;;;;;;;6.23;36.47;100256.94;4414411;32;33638;-74
2021/03/11 09:40:22;;;;;;;5.22;2.90;;;;;;;6.25;36.06;100240.97;4412549;32;32821;-73
2021/03/11 09:43:09;;;;;;;4.32;2.17;;;;;;;6.33;36.89;100242.12;4413672;32;32456;-74
2021/03/11 09:45:56;;;;;;;5.35;4.87;;;;;;;6.63;34.69;100249.72;4413173;32;34276;-73
2021/03/11 09:48:27;;;;;;;4.60;4.20;;;;;;;6.51;35.48;100247.94;4412750;32;34656;-73
2021/03/11 09:51:01;;;;;;;4.78;4.32;;;;;;;6.15;35.39;100247.84;4413182;32;33996;-73
2021/03/11 09:53:36;;;;;;;3.35;2.33;;;;;;;6.31;35.70;100240.53;4412239;32;34737;-73
2021/03/11 09:56:06;;;;;;;4.18;2.12;;;;;;;6.81;35.04;100238.66;4414493;32;34333;-73
2021/03/11 09:58:33;;;;;;;2.78;2.65;;;;;;;7.06;34.28;100243.00;4413882;32;34612;-73
2021/03/11 10:01:01;;;;;;;5.32;2.58;;;;;;;7.18;33.93;100229.75;4411563;32;32953;-73
2021/03/11 10:03:30;;;;;;;4.97;3.10;;;;;;;6.72;35.78;100230.56;4411030;32;33747;-73
2021/03/11 10:06:04;;;;;;;3.22;3.03;;;;;;;7.31;34.67;100227.03;4400145;32;33131;-72
2021/03/11 10:08:40;;;;;;;4.07;3.00;;;;;;;7.19;34.60;100220.00;4410189;32;34536;-72
2021/03/11 10:11:19;;;;;;;8.32;4.00;;;;;;;7.53;33.93;100211.25;4412387;32;34786;-72
2021/03/11 10:13:50;;;;;;;2.72;2.53;;;;;;;8.04;32.77;100200.19;4412925;32;33136;-73
2021/03/11 10:16:38;;;;;;;3.45;2.95;;;;;;;8.01;33.88;100192.47;4386673;32;35224;-72
2021/03/11 10:19:15;;;;;;;4.62;3.42;;;;;;;7.66;35.90;100198.78;4398469;32;34273;-73
2021/03/11 10:21:57;;;;;;;4.93;3.80;;;;;;;7.78;33.86;100182.81;4411692;32;33151;-73
2021/03/11 10:24:45;;;;;;;4.50;4.15;;;;;;;7.66;34.30;100174.94;4398428;32;34372;-73
2021/03/11 10:27:14;;;;;;;3.28;3.10;;;;;;;7.84;33.42;100166.44;4411974;32;34345;-73
2021/03/11 10:29:42;;;;;;;6.95;4.40;;;;;;;7.66;34.13;100185.53;4412943;32;34123;-73
2021/03/11 10:32:10;;;;;;;3.33;2.92;;;;;;;7.49;34.23;100178.88;4398918;32;35067;-73
2021/03/11 10:34:49;;;;;;;9.23;4.18;;;;;;;7.79;33.58;100179.19;4411596;32;33195;-73
2021/03/11 10:37:29;;;;;;;6.20;4.28;;;;;;;7.76;33.31;100174.12;4390378;32;34588;-73
2021/03/11 10:40:00;;;;;;;5.60;3.72;;;;;;;7.73;34.24;100177.00;4412531;32;33882;-73
2021/03/11 10:42:44;;;;;;;5.68;4.53;;;;;;;8.22;32.50;100169.63;4413219;32;33366;-73
2021/03/11 10:45:18;;;;;;;6.72;3.45;;;;;;;8.42;32.87;100166.25;4411859;32;33699;-73
2021/03/11 10:48:04;;;;;;;5.93;4.87;;;;;;;8.64;32.21;100161.78;4411410;32;34190;-73
2021/03/11 10:50:41;;;;;;;4.90;4.10;;;;;;;8.42;32.11;100168.91;4398731;32;34971;-73
2021/03/11 10:53:09;;;;;;;6.00;4.35;;;;;;;8.95;30.67;100157.47;4411483;32;33380;-73
2021/03/11 10:55:39;;;;;;;8.73;4.87;;;;;;;8.83;30.75;100154.00;4396892;32;33276;-73
2021/03/11 10:58:22;;;;;;;10.75;5.72;;;;;;;8.66;31.26;100146.56;4411908;32;34249;-73
2021/03/11 11:01:27;;;;;;;12.52;3.42;;;;;;;8.80;31.45;100137.50;4412669;32;33850;-74
2021/03/11 11:03:55;;;;;;;6.97;4.32;;;;;;;8.77;31.51;100122.66;4411579;32;32856;-73
2021/03/11 11:06:24;;;;;;;12.88;5.70;;;;;;;8.64;31.21;100113.19;4409105;32;34516;-72
2021/03/11 11:08:51;;;;;;;8.55;6.80;;;;;;;8.72;32.15;100111.56;4398770;32;35072;-73
2021/03/11 11:11:19;;;;;;;7.47;4.40;;;;;;;9.10;32.76;100101.31;4412391;32;34214;-72
2021/03/11 11:13:48;;;;;;;11.30;4.62;;;;;;;9.38;31.26;100086.56;4412765;32;33277;-72
2021/03/11 11:16:16;;;;;;;6.60;5.80;;;;;;;9.61;31.05;100088.97;4413552;32;34473;-73
2021/03/11 11:18:43;;;;;;;4.07;2.90;;;;;;;9.85;30.21;100076.22;4412928;32;35645;-72
2021/03/11 11:21:12;;;;;;;4.93;4.40;;;;;;;9.99;29.18;100075.84;4399676;32;35160;-73
2021/03/11 11:23:39;;;;;;;3.58;3.12;;;;;;;9.93;29.12;100073.72;4412096;32;33587;-73
2021/03/11 11:26:07;;;;;;;3.90;2.97;;;;;;;10.50;29.17;100065.97;4412437;32;33842;-73
2021/03/11 11:28:34;;;;;;;3.70;3.10;;;;;;;10.50;28.68;100043.84;4411510;32;34679;-72
2021/03/11 11:31:02;;;;;;;7.07;4.30;;;;;;;11.16;27.94;100035.88;4396831;32;34566;-72
2021/03/11 11:33:30;;;;;;;4.60;4.20;;;;;;;10.81;27.94;100032.97;4398431;32;33752;-72
2021/03/11 11:35:57;;;;;;;10.75;5.50;;;;;;;10.72;27.88;100032.94;4398542;32;32838;-72
2021/03/11 11:38:24;;;;;;;3.95;3.55;;;;;;;10.43;28.71;100030.28;4407502;32;34915;-72
2021/03/11 11:40:52;;;;;;;5.28;3.15;;;;;;;10.56;28.17;100012.22;4412360;32;34554;-73
2021/03/11 11:43:19;;;;;;;10.05;3.58;;;;;;;10.08;29.77;100016.59;4398919;32;33315;-72
2021/03/11 11:45:48;;;;;;;9.30;6.20;;;;;;;10.36;28.85;100007.00;4411733;32;33468;-72
2021/03/11 11:48:15;;;;;;;7.95;4.55;;;;;;;10.18;29.25;100006.00;4398271;32;33326;-72
2021/03/11 11:50:52;;;;;;;5.80;4.68;;;;;;;10.20;28.98;99998.75;4397061;32;34245;-72